Time;durP1;ratioP1;P1;durP2;ratioP2;P2;SDS_P1;SDS_P2;PMS_P1;PMS_P2;Temp;Humidity;BMP_temperature;BMP_pressure;BME280_temperature;BME280_humidity;BME280_pressure;Samples;Min_cycle;Max_cycle;Signal;HPM_P1;HPM_P2
2023/08/12 00:00:08;;;;;;;14.30;4.85;;;18.20;99.90;;;20.37;100.00;100875.44;5041831;28;20041;-88
2023/08/12 00:02:35;;;;;;;12.93;5.07;;;18.20;99.90;;;20.47;100.00;100874.63;5030336;28;20033;-87
2023/08/12 00:05:00;;;;;;;10.75;4.53;;;18.20;99.90;;;20.46;100.00;100868.25;5021480;28;20093;-89
2023/08/12 00:07:26;;;;;;;12.20;4.30;;;18.20;99.90;;;20.49;100.00;100876.00;5020116;28;20046;-87
2023/08/12 00:09:52;;;;;;;9.73;4.88;;;18.20;99.90;;;20.43;100.00;100867.97;5018014;28;20186;-88
2023/08/12 00:12:17;;;;;;;14.65;4.70;;;18.20;99.90;;;20.38;100.00;100868.78;5021255;28;20026;-88
2023/08/12 00:14:43;;;;;;;14.50;4.80;;;18.20;99.90;;;20.33;100.00;100866.03;5029061;28;20042;-88
2023/08/12 00:17:09;;;;;;;15.57;5.28;;;18.10;99.90;;;20.29;100.00;100870.47;5022998;28;20402;-88
2023/08/12 00:19:35;;;;;;;13.88;5.05;;;18.10;99.90;;;20.37;100.00;100867.13;5030576;28;20033;-88
2023/08/12 00:22:01;;;;;;;13.05;4.35;;;18.20;99.90;;;20.05;100.00;100859.94;5031206;28;20052;-88
2023/08/12 00:24:26;;;;;;;11.77;4.65;;;18.20;99.90;;;20.22;100.00;100866.03;5035636;28;20139;-88
2023/08/12 00:26:52;;;;;;;17.52;5.20;;;18.10;99.90;;;19.80;100.00;100848.53;5040771;28;20068;-86
2023/08/12 00:29:18;;;;;;;10.02;5.10;;;18.10;99.90;;;19.69;100.00;100844.06;5047817;28;20098;-88
2023/08/12 00:31:43;;;;;;;13.07;4.88;;;18.10;99.90;;;19.97;100.00;100842.78;5039411;28;20377;-88
2023/08/12 00:34:09;;;;;;;13.10;5.25;;;18.10;99.90;;;20.29;100.00;100871.31;5038199;28;20038;-88
2023/08/12 00:36:35;;;;;;;11.77;4.78;;;18.30;99.90;;;20.40;100.00;100870.19;5005796;28;20038;-88
2023/08/12 00:39:01;;;;;;;9.88;4.18;;;18.40;99.90;;;20.44;100.00;100877.94;5030285;28;20103;-88
2023/08/12 00:41:26;;;;;;;10.10;4.90;;;18.30;99.90;;;20.33;100.00;100874.34;5029163;28;20030;-88
2023/08/12 00:43:53;;;;;;;10.07;4.60;;;18.30;99.90;;;20.25;100.00;100865.47;5031960;28;20081;-88
2023/08/12 00:46:24;;;;;;;10.48;4.90;;;18.30;99.90;;;20.43;100.00;100871.59;5024993;28;20033;-88
2023/08/12 00:48:50;;;;;;;9.05;4.55;;;18.30;99.90;;;20.45;100.00;100868.53;5040077;28;20045;-88
2023/08/12 00:51:16;;;;;;;9.02;4.40;;;18.30;99.90;;;20.43;100.00;100874.34;5029937;28;20030;-88
2023/08/12 00:53:46;;;;;;;13.98;5.57;;;18.30;99.90;;;20.04;100.00;100849.97;5025942;28;20047;-87
2023/08/12 00:56:13;;;;;;;13.23;5.15;;;18.30;99.90;;;19.93;100.00;100849.97;5016677;28;20038;-88
2023/08/12 00:58:41;;;;;;;10.70;4.80;;;18.30;99.90;;;20.12;100.00;100852.19;5028164;28;20042;-87
2023/08/12 01:01:07;;;;;;;11.43;4.93;;;18.30;99.90;;;20.05;100.00;100846.94;5038392;28;20829;-87
2023/08/12 01:03:33;;;;;;;15.32;5.30;;;18.20;99.90;;;19.99;100.00;100839.72;5031109;28;20057;-88
2023/08/12 01:06:00;;;;;;;10.63;4.82;;;18.20;99.90;;;20.17;100.00;100835.59;5032060;28;20026;-88
2023/08/12 01:08:31;;;;;;;10.53;5.50;;;18.20;99.90;;;20.02;100.00;100835.56;5046754;28;20069;-87
2023/08/12 01:11:45;;;;;;;12.30;5.05;;;18.10;99.90;;;20.21;100.00;100833.91;5026866;28;20037;-86
2023/08/12 01:14:21;;;;;;;12.55;4.65;;;18.10;99.90;;;20.20;100.00;100831.41;5020282;28;20045;-88
2023/08/12 01:16:53;;;;;;;10.10;5.13;;;18.00;99.90;;;20.15;100.00;100826.69;5021414;28;20042;-87
2023/08/12 01:19:34;;;;;;;10.07;4.80;;;17.90;99.90;;;20.13;100.00;100831.69;5024571;28;20030;-88
2023/08/12 01:22:02;;;;;;;15.63;5.03;;;17.90;99.90;;;19.85;100.00;100814.47;5015711;28;20049;-87
2023/08/12 01:24:35;;;;;;;11.60;4.78;;;17.90;99.90;;;19.97;100.00;100812.31;5021603;28;20038;-87
2023/08/12 01:27:04;;;;;;;13.27;5.05;;;18.00;99.90;;;20.00;100.00;100815.63;5030691;28;20355;-86
2023/08/12 01:29:34;;;;;;;12.15;4.97;;;18.00;99.90;;;19.83;100.00;100803.69;5022989;28;20053;-87
2023/08/12 01:32:21;;;;;;;14.80;5.55;;;18.10;99.90;;;20.05;100.00;100812.88;5024195;28;20057;-87
2023/08/12 01:35:06;;;;;;;13.45;5.82;;;18.20;99.90;;;19.81;100.00;100805.06;5027131;28;20045;-87
2023/08/12 01:37:36;;;;;;;9.65;4.90;;;;;;;20.12;100.00;100816.19;5051955;28;20049;-88
2023/08/12 01:40:06;;;;;;;11.05;5.00;;;;;;;20.16;100.00;100820.06;5031025;28;20496;-88
2023/08/12 01:42:37;;;;;;;15.15;5.18;;;;;;;20.12;100.00;100807.88;5041106;28;20046;-87
2023/08/12 01:45:04;;;;;;;10.63;4.85;;;;;;;20.09;100.00;100808.44;5040237;28;20077;-86
2023/08/12 01:47:30;;;;;;;11.25;5.45;;;;;;;20.13;100.00;100806.75;5056584;28;20042;-88
2023/08/12 01:49:57;;;;;;;14.10;4.97;;;;;;;20.17;100.00;100802.34;5057032;28;20026;-89
2023/08/12 01:52:23;;;;;;;14.77;5.50;;;;;;;20.33;100.00;100799.53;5039606;28;20034;-88
2023/08/12 01:54:51;;;;;;;16.15;5.05;;;;;;;20.26;100.00;100803.44;5032031;28;20081;-88
2023/08/12 01:57:17;;;;;;;12.75;5.55;;;;;;;20.30;100.00;100809.25;5033680;28;20033;-88
2023/08/12 01:59:44;;;;;;;9.77;4.47;;;;;;;20.20;100.00;100806.47;5023779;28;20060;-88
2023/08/12 02:02:11;;;;;;;10.07;4.40;;;;;;;20.42;100.00;100808.94;5033816;28;20136;-88
2023/08/12 02:04:38;;;;;;;11.50;4.88;;;;;;;20.29;100.00;100809.53;5032804;28;20025;-87
2023/08/12 02:07:05;;;;;;;11.45;4.43;;;;;;;20.48;100.00;100801.47;5031360;28;20433;-87
2023/08/12 02:09:31;;;;;;;10.30;4.60;;;;;;;20.50;100.00;100800.09;5028638;28;20064;-87
2023/08/12 02:11:57;;;;;;;9.07;4.88;;;;;;;20.93;100.00;100805.25;5032960;28;20041;-87
2023/08/12 02:14:24;;;;;;;9.63;5.78;;;;;;;20.93;100.00;100809.94;5025130;28;20038;-88
2023/08/12 02:16:50;;;;;;;10.43;4.15;;;;;;;20.91;100.00;100807.47;5044551;28;20091;-87
2023/08/12 02:19:16;;;;;;;9.20;4.60;;;;;;;21.01;100.00;100814.09;5028190;28;20088;-88
2023/08/12 02:21:43;;;;;;;9.93;4.65;;;;;;;21.08;100.00;100815.44;5036403;28;20041;-87
2023/08/12 02:24:09;;;;;;;10.50;4.65;;;;;;;21.12;100.00;100816.53;5027377;28;20192;-88
2023/08/12 02:26:37;;;;;;;8.05;4.40;;;;;;;21.02;100.00;100816.59;5046536;28;20042;-85
2023/08/12 02:29:04;;;;;;;5.90;3.67;;;;;;;21.07;100.00;100807.41;5044347;28;20050;-87
2023/08/12 02:31:30;;;;;;;9.73;4.30;;;;;;;20.99;100.00;100808.84;5029197;28;20033;-89
2023/08/12 02:33:56;;;;;;;7.25;3.95;;;;;;;21.00;100.00;100801.34;5022936;28;20109;-88
2023/08/12 02:36:25;;;;;;;9.38;4.40;;;;;;;20.96;100.00;100790.81;5025942;28;20037;-87
2023/08/12 02:38:51;;;;;;;10.38;4.63;;;;;;;20.88;100.00;100791.41;5029097;28;20494;-87
2023/08/12 02:41:17;;;;;;;11.93;4.70;;;;;;;20.76;100.00;100786.16;5018864;28;20037;-87
2023/08/12 02:43:43;;;;;;;10.48;4.60;;;;;;;20.80;100.00;100792.81;5033073;28;20076;-87
2023/08/12 02:46:10;;;;;;;8.20;4.55;;;;;;;20.81;100.00;100800.03;5030985;28;20060;-87
2023/08/12 02:48:36;;;;;;;8.23;4.40;;;;;;;20.56;100.00;100792.59;5024276;28;20085;-84
2023/08/12 02:51:02;;;;;;;13.15;4.20;;;;;;;20.62;100.00;100779.53;5040588;28;20095;-89
2023/08/12 02:53:33;;;;;;;10.52;4.75;;;;;;;20.81;100.00;100802.81;5027486;28;20042;-87
2023/08/12 02:55:59;;;;;;;7.55;4.25;;;;;;;20.59;100.00;100803.13;5018120;28;20403;-87
2023/08/12 02:58:32;;;;;;;9.93;4.43;;;;;;;20.51;100.00;100795.34;5054684;28;20053;-88
2023/08/12 03:00:58;;;;;;;11.02;4.78;;;;;;;20.42;100.00;100792.31;5026665;28;20057;-88
2023/08/12 03:03:24;;;;;;;8.85;4.40;;;;;;;20.37;100.00;100789.56;5009522;28;20096;-85
2023/08/12 03:05:50;;;;;;;8.48;4.50;;;;;;;20.43;100.00;100784.84;5031663;28;20042;-87
2023/08/12 03:08:17;;;;;;;5.32;3.95;;;;;;;20.67;100.00;100788.66;5041871;28;20113;-87
2023/08/12 03:10:47;;;;;;;7.00;4.00;;;;;;;20.79;100.00;100795.84;5055355;28;20038;-87
2023/08/12 03:13:15;;;;;;;6.40;3.75;;;;;;;20.60;100.00;100798.38;5042073;28;20025;-87
2023/08/12 03:15:42;;;;;;;6.43;4.35;;;;;;;20.63;100.00;100798.66;5031840;28;20033;-88
2023/08/12 03:18:09;;;;;;;10.50;5.20;;;;;;;20.70;100.00;100795.59;5042470;28;20087;-86
2023/08/12 03:20:37;;;;;;;9.13;4.50;;;;;;;20.56;100.00;100789.81;5036807;28;20516;-86
2023/08/12 03:23:03;;;;;;;9.57;4.40;;;;;;;20.50;100.00;100789.00;5034884;28;20041;-87
2023/08/12 03:25:30;;;;;;;7.65;4.30;;;;;;;20.52;100.00;100802.56;5033634;28;20033;-85
2023/08/12 03:27:56;;;;;;;7.50;4.60;;;;;;;20.43;100.00;100802.31;5041821;28;20087;-87
2023/08/12 03:30:23;;;;;;;11.98;4.72;;;;;;;20.33;100.00;100811.47;5034986;28;20025;-88
2023/08/12 03:32:49;;;;;;;6.82;4.35;;;;;;;20.42;100.00;100792.31;5030858;28;20125;-88
2023/08/12 03:35:15;;;;;;;9.32;4.35;;;;;;;20.41;100.00;100802.59;5030710;28;20059;-88
2023/08/12 03:37:43;;;;;;;8.77;4.57;;;;;;;20.53;100.00;100793.13;5037216;28;20041;-88
2023/08/12 03:40:09;;;;;;;8.65;4.32;;;;;;;20.61;100.00;100800.91;5038188;28;20053;-87
2023/08/12 03:42:38;;;;;;;7.97;4.55;;;;;;;20.74;100.00;100793.94;5033859;28;20042;-83
2023/08/12 03:45:05;;;;;;;10.60;4.20;;;;;;;20.70;100.00;100803.94;5044520;28;20052;-88
2023/08/12 03:47:31;;;;;;;9.38;4.57;;;;;;;20.78;100.00;100796.94;5051992;28;20049;-86
2023/08/12 03:49:58;;;;;;;8.82;4.75;;;;;;;20.66;100.00;100800.03;5044860;28;20092;-87
2023/08/12 03:52:24;;;;;;;9.82;4.78;;;;;;;20.90;100.00;100804.97;5063950;28;20044;-88
2023/08/12 03:54:52;;;;;;;6.97;4.13;;;;;;;20.97;100.00;100824.94;5045770;28;20046;-88
2023/08/12 03:57:19;;;;;;;7.05;4.30;;;;;;;20.93;100.00;100829.38;5030209;28;20044;-84
2023/08/12 03:59:46;;;;;;;7.22;4.15;;;;;;;20.93;100.00;100815.50;5039395;28;20398;-86
2023/08/12 04:02:12;;;;;;;6.22;4.20;;;;;;;20.72;100.00;100790.63;5027705;28;20037;-87
2023/08/12 04:04:38;;;;;;;5.22;4.00;;;;;;;20.80;100.00;100787.28;5016775;28;20119;-88
2023/08/12 04:07:05;;;;;;;7.38;4.40;;;;;;;20.92;100.00;100792.50;5027841;28;20033;-88
2023/08/12 04:09:31;;;;;;;6.93;4.32;;;;;;;20.97;100.00;100797.22;5031843;28;20168;-87
2023/08/12 04:11:57;;;;;;;9.07;4.25;;;;;;;20.72;100.00;100798.94;5007010;28;20065;-87
2023/08/12 04:14:23;;;;;;;8.10;4.70;;;;;;;21.02;100.00;100802.72;5015748;28;20027;-87
2023/08/12 04:16:49;;;;;;;7.50;4.32;;;;;;;21.31;100.00;100821.44;5030334;28;20041;-89
2023/08/12 04:19:17;;;;;;;7.78;4.50;;;;;;;21.37;100.00;100823.06;5026712;28;20029;-87
2023/08/12 04:21:46;;;;;;;10.55;5.20;;;;;;;21.33;100.00;100835.88;5029671;28;20042;-87
2023/08/12 04:24:13;;;;;;;10.70;5.55;;;;;;;21.24;100.00;100823.72;5016954;28;20394;-88
2023/08/12 04:26:40;;;;;;;9.18;5.00;;;;;;;21.36;100.00;100826.97;5027651;28;20034;-87
2023/08/12 04:29:06;;;;;;;9.23;4.97;;;;;;;21.38;100.00;100830.28;5019881;28;20128;-88
2023/08/12 04:31:35;;;;;;;9.50;5.40;;;;;;;21.58;100.00;100822.97;5029465;28;20164;-87
2023/08/12 04:34:03;;;;;;;10.65;5.85;;;;;;;21.28;100.00;100838.66;5034562;28;20029;-88
2023/08/12 04:36:30;;;;;;;8.95;5.50;;;;;;;21.21;100.00;100830.66;5028012;28;20041;-87
2023/08/12 04:38:58;;;;;;;12.57;6.25;;;;;;;21.18;100.00;100828.44;5022099;28;20044;-87
2023/08/12 04:41:24;;;;;;;7.95;5.70;;;;;;;21.15;100.00;100814.31;5019029;28;20042;-88
2023/08/12 04:43:51;;;;;;;11.32;6.50;;;;;;;21.28;100.00;100805.38;5028531;28;20034;-88
2023/08/12 04:46:18;;;;;;;13.25;7.55;;;;;;;21.22;100.00;100799.03;5028204;28;20033;-89
2023/08/12 04:48:45;;;;;;;12.15;8.00;;;;;;;21.16;100.00;100793.78;5020111;28;20478;-88
2023/08/12 04:51:11;;;;;;;13.00;8.23;;;;;;;21.03;100.00;100795.22;5022550;28;20026;-87
2023/08/12 04:53:38;;;;;;;12.98;9.13;;;;;;;20.89;100.00;100773.66;5020401;28;20371;-86
2023/08/12 04:56:05;;;;;;;18.38;9.60;;;;;;;20.90;100.00;100771.72;5022376;28;20059;-87
2023/08/12 04:58:32;;;;;;;11.98;9.48;;;;;;;20.81;100.00;100771.47;5029538;28;20043;-83
2023/08/12 05:00:58;;;;;;;13.85;10.30;;;;;;;20.62;100.00;100762.91;5018739;28;20371;-82
2023/08/12 05:03:24;;;;;;;12.90;9.63;;;;;;;20.64;100.00;100747.66;5022953;28;20040;-82
2023/08/12 05:05:52;;;;;;;12.48;10.20;;;;;;;20.57;100.00;100740.75;5033270;28;20034;-82
2023/08/12 05:08:21;;;;;;;13.23;10.75;;;;;;;20.57;100.00;100733.28;5026974;28;20046;-80
2023/08/12 05:10:48;;;;;;;15.73;10.77;;;;;;;20.45;100.00;100736.38;5030428;28;20030;-83
2023/08/12 05:13:15;;;;;;;17.38;12.15;;;;;;;20.43;100.00;100716.44;5033719;28;20057;-82
2023/08/12 05:15:44;;;;;;;17.48;13.00;;;;;;;20.48;100.00;100719.19;5027674;28;20042;-79
2023/08/12 05:18:10;;;;;;;19.55;14.23;;;;;;;20.52;100.00;100713.88;5031857;28;20063;-80
2023/08/12 05:20:36;;;;;;;23.67;16.17;;;;;;;20.47;100.00;100703.66;5021212;28;20042;-79
2023/08/12 05:23:03;;;;;;;22.00;16.67;;;;;;;20.47;100.00;100684.28;5026290;28;20491;-79
2023/08/12 05:25:29;;;;;;;22.42;16.45;;;;;;;20.53;100.00;100676.75;5016179;28;20045;-79
2023/08/12 05:27:55;;;;;;;22.75;17.90;;;;;;;20.57;100.00;100664.00;5027820;28;20033;-79
2023/08/12 05:30:21;;;;;;;24.50;18.17;;;;;;;20.82;100.00;100676.94;5017933;28;20022;-80
2023/08/12 05:32:47;;;;;;;25.40;18.83;;;;;;;21.02;100.00;100686.25;5028663;28;20370;-82
2023/08/12 05:35:13;;;;;;;23.13;17.13;;;;;;;21.02;100.00;100689.03;5023071;28;20038;-86
2023/08/12 05:37:39;;;;;;;21.95;17.90;;;;;;;21.04;100.00;100681.25;5025089;28;20044;-79
2023/08/12 05:40:08;;;;;;;23.05;17.08;;;;;;;21.21;100.00;100702.22;5024536;28;20034;-78
2023/08/12 05:42:35;;;;;;;23.33;16.15;;;;;;;21.30;100.00;100705.19;5023055;28;20075;-77
2023/08/12 05:45:01;;;;;;;23.90;18.17;;;;;;;21.36;100.00;100704.88;5027162;28;20112;-79
2023/08/12 05:47:27;;;;;;;22.48;17.63;;;;;;;21.44;100.00;100705.38;5018419;28;20053;-81
2023/08/12 05:49:53;;;;;;;21.63;17.30;;;;;;;21.54;100.00;100705.31;5018433;28;20057;-79
2023/08/12 05:52:20;;;;;;;21.92;18.60;;;;;;;21.53;100.00;100706.44;5023815;28;20038;-84
2023/08/12 05:54:46;;;;;;;26.08;18.30;;;;;;;21.56;100.00;100705.84;5029468;28;20033;-85
2023/08/12 05:57:12;;;;;;;24.10;17.52;;;;;;;21.61;100.00;100704.97;5014888;28;20042;-87
2023/08/12 05:59:38;;;;;;;21.50;17.27;;;;;;;21.67;100.00;100704.66;5027719;28;20022;-83
2023/08/12 06:02:04;;;;;;;24.17;17.83;;;;;;;21.59;100.00;100691.41;5027575;28;20033;-84
2023/08/12 06:04:30;;;;;;;26.75;17.60;;;;;;;21.62;100.00;100690.00;5017008;28;20434;-82
2023/08/12 06:06:56;;;;;;;24.35;18.83;;;;;;;21.61;100.00;100689.16;5018851;28;20049;-85
2023/08/12 06:09:22;;;;;;;20.33;15.90;;;;;;;21.78;100.00;100677.66;5035733;28;20042;-84
2023/08/12 06:11:49;;;;;;;24.42;18.02;;;;;;;21.82;100.00;100673.16;5021757;28;20482;-85
2023/08/12 06:14:15;;;;;;;23.52;17.20;;;;;;;21.93;100.00;100667.53;5040025;28;20044;-85
2023/08/12 06:16:41;;;;;;;25.17;17.92;;;;;;;22.02;100.00;100671.31;5041580;28;20048;-84
2023/08/12 06:19:07;;;;;;;20.45;15.45;;;;;;;22.18;100.00;100665.59;5037668;28;20040;-83
2023/08/12 06:21:33;;;;;;;17.95;14.50;;;;;;;22.33;100.00;100682.06;5029561;28;20064;-84
2023/08/12 06:23:59;;;;;;;22.65;16.73;;;;;;;22.11;100.00;100702.88;5026836;28;20037;-84
2023/08/12 06:26:25;;;;;;;21.95;15.77;;;;;;;21.90;100.00;100693.13;5026823;28;20153;-84
2023/08/12 06:28:52;;;;;;;21.75;14.43;;;;;;;21.89;100.00;100700.59;5026948;28;20413;-84
2023/08/12 06:31:18;;;;;;;21.23;15.85;;;;;;;21.98;100.00;100692.47;5034142;28;20124;-82
2023/08/12 06:33:44;;;;;;;20.60;15.60;;;;;;;21.15;100.00;100640.41;5024504;28;20029;-83
2023/08/12 06:36:10;;;;;;;21.48;16.90;;;;;;;21.51;100.00;100622.66;5028012;28;20068;-86
2023/08/12 06:38:36;;;;;;;20.15;14.50;;;;;;;22.25;100.00;100646.63;5036490;28;20132;-83
2023/08/12 06:41:03;;;;;;;19.75;13.95;;;;;;;22.59;100.00;100692.91;5018879;28;20042;-85
2023/08/12 06:43:29;;;;;;;17.33;13.70;;;;;;;22.58;100.00;100702.38;5023397;28;20038;-86
2023/08/12 06:45:55;;;;;;;17.88;13.88;;;;;;;22.66;100.00;100700.91;5021940;28;20084;-85
2023/08/12 06:48:21;;;;;;;20.10;13.15;;;;;;;22.85;100.00;100692.59;5014933;28;20456;-84
2023/08/12 06:50:54;;;;;;;17.63;12.80;;;;;;;22.82;100.00;100727.41;5029860;28;20033;-84
2023/08/12 06:53:20;;;;;;;16.88;12.73;;;;;;;22.41;100.00;100728.69;5031162;28;20473;-86
2023/08/12 06:55:46;;;;;;;17.20;13.07;;;;;;;23.02;100.00;100728.22;5025159;28;20369;-86
2023/08/12 06:58:14;;;;;;;18.80;13.27;;;;;;;23.02;100.00;100747.69;5025601;28;20084;-85
2023/08/12 07:00:41;;;;;;;;;;;;;;;23.03;100.00;100751.31;5032287;28;20408;-86
2023/08/12 07:03:07;;;;;;;14.75;11.73;;;;;;;23.19;100.00;100746.38;5019488;28;19919;-87
2023/08/12 07:05:33;;;;;;;15.38;11.52;;;;;;;23.49;100.00;100749.84;5020618;28;20030;-85
2023/08/12 07:07:59;;;;;;;14.85;12.68;;;;;;;23.42;100.00;100751.06;5029954;28;20079;-87
2023/08/12 07:10:26;;;;;;;15.98;11.48;;;;;;;23.57;100.00;100751.94;5023405;28;20050;-85
2023/08/12 07:12:52;;;;;;;16.25;12.00;;;;;;;23.74;100.00;100756.16;5037506;28;20034;-89
2023/08/12 07:15:18;;;;;;;15.93;11.25;;;;;;;23.86;100.00;100753.69;5027181;28;20029;-89
2023/08/12 07:17:45;;;;;;;14.40;10.00;;;;;;;23.47;100.00;100746.56;5020596;28;20038;-88
2023/08/12 07:20:11;;;;;;;15.95;10.65;;;;;;;23.50;100.00;100751.50;5018925;28;20166;-83
2023/08/12 07:22:37;;;;;;;14.13;9.40;;;;;;;23.26;100.00;100752.41;5039355;28;20038;-83
2023/08/12 07:25:03;;;;;;;15.57;9.48;;;;;;;23.60;100.00;100754.13;5048845;28;20038;-85
2023/08/12 07:27:30;;;;;;;16.10;9.73;;;;;;;23.52;100.00;100754.81;5028885;28;20604;-83
2023/08/12 07:29:58;;;;;;;13.98;9.77;;;;;;;23.39;100.00;100739.69;5028305;28;20041;-83
2023/08/12 07:32:24;;;;;;;16.80;9.35;;;;;;;23.44;100.00;100733.25;5020783;28;20037;-83
2023/08/12 07:34:50;;;;;;;14.27;10.00;;;;;;;23.47;100.00;100736.22;5027928;28;20045;-80
2023/08/12 07:37:24;;;;;;;15.02;8.95;;;;;;;23.38;100.00;100736.09;5016580;28;20079;-86
2023/08/12 07:39:50;;;;;;;12.15;9.50;;;;;;;23.29;100.00;100728.75;5016119;28;20044;-87
2023/08/12 07:42:17;;;;;;;19.38;10.30;;;;;;;23.42;100.00;100739.94;5013721;28;20030;-88
2023/08/12 07:44:43;;;;;;;17.47;10.63;;;;;;;23.39;100.00;100734.13;5031733;28;20459;-87
2023/08/12 07:47:09;;;;;;;15.95;10.02;;;;;;;23.59;100.00;100746.91;5021671;28;20469;-85
2023/08/12 07:49:36;;;;;;;15.48;9.57;;;;;;;23.83;100.00;100749.59;5030009;28;20038;-86
2023/08/12 07:52:02;;;;;;;14.07;9.38;;;;;;;23.95;100.00;100753.84;5031759;28;20044;-89
2023/08/12 07:54:28;;;;;;;13.57;8.57;;;;;;;23.55;100.00;100759.78;5031498;28;20116;-88
2023/08/12 07:56:54;;;;;;;11.20;8.90;;;;;;;23.20;100.00;100743.28;5034181;28;20045;-83
2023/08/12 07:59:21;;;;;;;13.32;8.52;;;;;;;23.01;100.00;100757.19;5021410;28;20417;-84
2023/08/12 08:01:47;;;;;;;15.70;8.93;;;;;;;22.82;100.00;100746.03;5022520;28;20037;-83
2023/08/12 08:04:13;;;;;;;11.73;8.52;;;;;;;22.70;100.00;100738.09;5029402;28;20433;-85
2023/08/12 08:06:39;;;;;;;13.57;9.05;;;;;;;22.58;100.00;100726.59;5033530;28;20040;-86
2023/08/12 08:09:06;;;;;;;15.38;9.50;;;;;;;22.59;100.00;100725.47;5027998;28;20398;-86
2023/08/12 08:11:34;;;;;;;14.20;7.53;;;;;;;23.02;100.00;100719.88;5023649;28;20139;-81
2023/08/12 08:14:00;;;;;;;14.90;8.45;;;;;;;23.01;100.00;100722.97;5026829;28;20036;-83
2023/08/12 08:16:26;;;;;;;12.35;8.38;;;;;;;22.89;100.00;100740.09;5032058;28;20042;-83
2023/08/12 08:18:52;;;;;;;11.95;7.88;;;;;;;23.00;100.00;100744.41;5032377;28;20033;-85
2023/08/12 08:21:19;;;;;;;11.57;7.80;;;;;;;23.13;100.00;100749.22;5033098;28;20418;-84
2023/08/12 08:23:46;;;;;;;10.07;7.32;;;;;;;23.20;100.00;100751.63;5031078;28;20044;-89
2023/08/12 08:26:15;;;;;;;8.57;6.35;;;;;;;23.19;100.00;100751.94;5028929;28;21368;-87
2023/08/12 08:28:41;;;;;;;10.10;6.18;;;;;;;23.26;100.00;100752.41;5029458;28;20047;-86
2023/08/12 08:31:07;;;;;;;7.60;5.57;;;;;;;22.95;100.00;100752.81;5027791;28;20474;-81
2023/08/12 08:33:33;;;;;;;9.68;5.65;;;;;;;22.79;100.00;100746.63;5024678;28;20038;-82
2023/08/12 08:35:59;;;;;;;7.40;5.97;;;;;;;22.48;100.00;100736.69;5029361;28;20030;-82
2023/08/12 08:38:26;;;;;;;10.70;5.95;;;;;;;22.32;100.00;100726.84;5030034;28;20037;-82
2023/08/12 08:40:52;;;;;;;9.02;5.60;;;;;;;22.26;100.00;100717.72;5023064;28;20496;-86
2023/08/12 08:43:22;;;;;;;8.32;5.65;;;;;;;22.28;100.00;100718.25;5030569;28;20084;-87
2023/08/12 08:45:52;;;;;;;8.63;5.90;;;;;;;22.35;100.00;100706.81;5016031;28;20037;-83
2023/08/12 08:48:19;;;;;;;8.50;5.80;;;;;;;22.40;100.00;100703.97;5027698;28;20044;-86
2023/08/12 08:50:47;;;;;;;7.82;5.88;;;;;;;22.62;100.00;100714.56;5024161;28;20045;-86
2023/08/12 08:53:17;;;;;;;10.80;6.25;;;;;;;22.74;100.00;100730.81;5033315;28;20045;-83
2023/08/12 08:55:45;;;;;;;9.70;5.88;;;;;;;22.63;100.00;100724.56;5030028;28;20034;-86
2023/08/12 08:58:11;;;;;;;9.52;6.75;;;;;;;22.30;100.00;100718.81;5025159;28;20069;-85
2023/08/12 09:00:38;;;;;;;12.13;6.63;;;;;;;21.94;100.00;100714.44;5021722;28;20064;-84
2023/08/12 09:03:08;;;;;;;10.43;5.82;;;;;;;22.29;100.00;100710.78;5028987;28;20065;-87
2023/08/12 09:05:38;;;;;;;8.55;5.57;;;;;;;22.47;100.00;100717.53;5019339;28;20053;-87
2023/08/12 09:08:10;;;;;;;9.75;6.10;;;;;;;22.63;100.00;100726.53;5019357;28;20049;-84
2023/08/12 09:10:38;;;;;;;10.65;6.07;;;;;;;22.34;100.00;100721.81;5032787;28;20034;-81
2023/08/12 09:13:04;;;;;;;;;;;;;;;22.36;100.00;100698.16;5028451;28;20042;-80
2023/08/12 09:15:30;;;;;;;10.07;5.80;;;;;;;22.62;100.00;100710.97;5015856;28;19917;-81
2023/08/12 09:17:56;;;;;;;8.55;5.85;;;;;;;22.78;100.00;100725.50;5023062;28;20496;-82
2023/08/12 09:20:22;;;;;;;9.43;5.30;;;;;;;23.16;100.00;100731.09;5030886;28;20371;-81
2023/08/12 09:22:57;;;;;;;10.13;5.55;;;;;;;23.61;100.00;100736.31;5026747;28;20025;-80
2023/08/12 09:25:24;;;;;;;8.13;5.03;;;;;;;24.25;100.00;100748.88;5031803;28;20146;-81
2023/08/12 09:27:50;;;;;;;10.10;5.32;;;;;;;24.68;100.00;100753.38;5033933;28;20049;-81
2023/08/12 09:30:17;;;;;;;9.05;4.82;;;;;;;25.50;100.00;100759.16;5030392;28;20030;-81
2023/08/12 09:33:03;;;;;;;9.63;4.95;;;;;;;26.20;100.00;100760.81;5025358;28;20042;-79
2023/08/12 09:35:37;;;;;;;8.65;4.75;;;;;;;26.95;100.00;100760.97;5029557;28;20041;-80
2023/08/12 09:38:04;;;;;;;8.30;4.28;;;;;;;26.96;100.00;100761.78;5031597;28;20034;-83
2023/08/12 09:40:32;;;;;;;5.80;4.07;;;;;;;26.98;100.00;100765.06;5032506;28;20037;-85
2023/08/12 09:42:59;;;;;;;6.75;4.63;;;;;;;26.36;100.00;100753.63;5038991;28;20044;-86
2023/08/12 09:45:26;;;;;;;7.30;4.50;;;;;;;26.20;100.00;100747.63;5032094;28;20045;-81
2023/08/12 09:47:53;;;;;;;10.23;4.70;;;;;;;25.89;100.00;100742.84;5026711;28;20034;-83
2023/08/12 09:50:21;;;;;;;;;;;;;;;25.85;100.00;100730.66;5040076;28;20064;-81
2023/08/12 09:52:47;;;;;;;7.63;4.75;;;;;;;25.97;100.00;100728.06;5035266;28;19913;-80
2023/08/12 09:55:18;;;;;;;7.05;4.55;;;;;;;26.35;100.00;100721.22;5035269;28;20437;-81
2023/08/12 09:57:47;;;;;;;12.98;4.55;;;;;;;26.56;100.00;100723.44;5030412;28;20068;-82
2023/08/12 10:00:18;;;;;;;6.75;4.47;;;;;;;26.81;100.00;100718.25;5029157;28;20037;-80
2023/08/12 10:02:49;;;;;;;7.38;4.28;;;;;;;27.11;100.00;100724.09;5030222;28;20033;-80
2023/08/12 10:05:31;;;;;;;6.35;4.50;;;;;;;27.12;100.00;100723.78;5032263;28;20401;-80
2023/08/12 10:07:58;;;;;;;6.18;4.57;;;;;;;27.21;100.00;100718.19;5032655;28;20041;-81
2023/08/12 10:10:25;;;;;;;8.02;4.90;;;;;;;26.72;100.00;100712.63;5029522;28;20053;-84
2023/08/12 10:12:52;;;;;;;6.80;4.60;;;;;;;26.32;100.00;100712.69;5032942;28;20037;-83
2023/08/12 10:15:19;;;;;;;8.02;4.50;;;;;;;26.61;100.00;100712.09;5022293;28;20104;-84
2023/08/12 10:17:45;;;;;;;8.13;4.55;;;;;;;26.58;100.00;100723.94;5027793;28;20371;-87
2023/08/12 10:20:19;;;;;;;6.32;4.65;;;;;;;26.36;100.00;100722.06;5029093;28;20080;-89
2023/08/12 10:22:48;;;;;;;7.05;4.68;;;;;;;26.25;100.00;100736.31;5028345;28;20038;-86
2023/08/12 10:25:15;;;;;;;6.70;4.80;;;;;;;26.34;100.00;100730.75;5033344;28;20112;-84
2023/08/12 10:27:41;;;;;;;7.25;4.45;;;;;;;26.52;100.00;100728.88;5015223;28;20057;-84
2023/08/12 10:30:09;;;;;;;7.28;4.63;;;;;;;26.35;100.00;100726.00;5027696;28;20481;-85
2023/08/12 10:32:36;;;;;;;9.32;4.45;;;;;;;26.47;100.00;100729.00;5032595;28;20932;-83
2023/08/12 10:35:02;;;;;;;10.27;4.82;;;;;;;26.64;100.00;100738.63;5028576;28;20080;-85
2023/08/12 10:37:33;;;;;;;5.40;4.07;;;;;;;27.13;100.00;100738.56;5033226;28;20048;-93
2023/08/12 10:40:07;;;;;;;6.18;4.40;;;;;;;27.00;100.00;100737.56;5030656;28;20095;-82
2023/08/12 10:42:47;;;;;;;5.82;4.32;;;;;;;26.89;100.00;100741.84;5029651;28;20065;-86
2023/08/12 10:45:18;;;;;;;8.45;4.20;;;;;;;26.14;100.00;100732.97;5031929;28;20033;-82
2023/08/12 10:48:04;;;;;;;6.72;4.60;;;;;;;25.90;100.00;100729.69;5031252;28;20039;-86
2023/08/12 10:50:31;;;;;;;6.85;4.38;;;;;;;25.75;100.00;100736.50;5038439;28;20034;-86
2023/08/12 10:52:57;;;;;;;6.28;4.60;;;;;;;25.99;100.00;100727.78;5052263;28;20057;-84
2023/08/12 10:55:26;;;;;;;6.55;4.30;;;;;;;26.74;100.00;100721.53;5053978;28;20024;-84
2023/08/12 10:57:54;;;;;;;8.43;4.45;;;;;;;28.79;100.00;100710.56;5051107;28;20060;-86
2023/08/12 11:00:23;;;;;;;5.05;3.75;;;;;;;29.81;100.00;100695.50;5039074;28;20041;-88